createdAt,value
2022-12-13T00:01:53.089Z,-7.10
2022-12-13T00:04:22.150Z,-7.10
2022-12-13T00:06:49.876Z,-7.10
2022-12-13T00:09:19.073Z,-7.10
2022-12-13T00:11:46.607Z,-7.10
2022-12-13T00:14:16.605Z,-7.10
2022-12-13T00:16:48.160Z,-7.10
2022-12-13T00:19:15.846Z,-7.10
2022-12-13T00:21:42.651Z,-7.20
2022-12-13T00:24:09.494Z,-7.20
2022-12-13T00:26:36.410Z,-7.30
2022-12-13T00:29:06.461Z,-7.30
2022-12-13T00:32:03.554Z,-7.30
2022-12-13T00:34:20.434Z,-7.30
2022-12-13T00:36:48.298Z,-7.40
2022-12-13T00:39:16.716Z,-7.40
2022-12-13T00:41:44.150Z,-7.50
2022-12-13T00:44:12.676Z,-7.50
2022-12-13T00:46:40.402Z,-7.50
2022-12-13T00:49:07.944Z,-7.50
2022-12-13T00:51:35.188Z,-7.50
2022-12-13T00:54:02.539Z,-7.60
2022-12-13T00:56:31.938Z,-7.50
2022-12-13T00:58:59.363Z,-7.60
2022-12-13T01:01:31.620Z,-7.50
2022-12-13T01:04:00.723Z,-7.50
2022-12-13T01:06:34.242Z,-7.50
2022-12-13T01:09:01.636Z,-7.60
2022-12-13T01:11:28.436Z,-7.60
2022-12-13T01:13:55.300Z,-7.60
2022-12-13T01:16:22.182Z,-7.60
2022-12-13T01:18:49.198Z,-7.60
2022-12-13T01:21:18.732Z,-7.60
2022-12-13T01:23:45.848Z,-7.70
2022-12-13T01:26:15.680Z,-7.70
2022-12-13T01:28:43.337Z,-7.70
2022-12-13T01:31:13.491Z,-7.70
2022-12-13T01:33:41.215Z,-7.80
2022-12-13T01:36:13.157Z,-7.80
2022-12-13T01:38:40.226Z,-7.80
2022-12-13T01:41:17.212Z,-7.80
2022-12-13T01:43:45.126Z,-7.80
2022-12-13T01:46:13.269Z,-7.90
2022-12-13T01:48:45.905Z,-7.90
2022-12-13T01:51:17.530Z,-7.90
2022-12-13T01:53:46.644Z,-7.90
2022-12-13T01:56:21.094Z,-8.00
2022-12-13T01:58:50.424Z,-8.00
2022-12-13T02:01:18.423Z,-8.00
2022-12-13T02:03:45.809Z,-8.00
2022-12-13T02:06:15.084Z,-7.90
2022-12-13T02:08:44.416Z,-7.80
2022-12-13T02:11:11.942Z,-7.90
2022-12-13T02:13:39.011Z,-7.80
2022-12-13T02:16:22.280Z,-7.90
2022-12-13T02:19:01.488Z,-7.90
2022-12-13T02:22:14.314Z,-7.90
2022-12-13T02:25:07.190Z,-8.00
2022-12-13T02:27:46.571Z,-8.10
2022-12-13T02:30:31.142Z,-8.10
2022-12-13T02:32:57.939Z,-8.00
2022-12-13T02:35:33.823Z,-8.10
2022-12-13T02:38:00.575Z,-8.10
2022-12-13T02:40:34.775Z,-8.10
2022-12-13T02:43:04.617Z,-8.20
2022-12-13T02:45:55.428Z,-8.20
2022-12-13T02:48:27.492Z,-8.20
2022-12-13T02:50:56.290Z,-8.20
2022-12-13T02:53:24.567Z,-8.20
2022-12-13T02:55:51.571Z,-8.20
2022-12-13T02:58:24.388Z,-8.30
2022-12-13T03:01:04.673Z,-8.30
2022-12-13T03:04:30.078Z,-8.20
2022-12-13T03:07:28.520Z,-8.30
2022-12-13T03:10:15.441Z,-8.20
2022-12-13T03:13:16.062Z,-8.20
2022-12-13T03:15:53.239Z,-8.20
2022-12-13T03:18:22.712Z,-8.20
2022-12-13T03:20:56.263Z,-8.30
2022-12-13T03:23:24.248Z,-8.30
2022-12-13T03:25:55.587Z,-8.30
2022-12-13T03:28:23.455Z,-8.20
2022-12-13T03:30:50.367Z,-8.20
2022-12-13T03:33:17.314Z,-8.10
2022-12-13T03:35:45.733Z,-8.10
2022-12-13T03:38:21.353Z,-8.20
2022-12-13T03:40:53.041Z,-8.20
2022-12-13T03:43:22.060Z,-8.30
2022-12-13T03:45:50.662Z,-8.30
2022-12-13T03:48:21.897Z,-8.40
2022-12-13T03:50:51.741Z,-8.50
2022-12-13T03:53:22.370Z,-8.50
2022-12-13T03:55:58.813Z,-8.50
2022-12-13T03:58:35.696Z,-8.50
2022-12-13T04:01:05.829Z,-8.50
2022-12-13T04:03:34.125Z,-8.60
2022-12-13T04:06:00.982Z,-8.60
2022-12-13T04:08:28.008Z,-8.60
2022-12-13T04:10:54.870Z,-8.60
2022-12-13T04:13:33.521Z,-8.60
2022-12-13T04:16:01.701Z,-8.60
2022-12-13T04:18:28.982Z,-8.60
2022-12-13T04:20:55.961Z,-8.60
2022-12-13T04:23:23.352Z,-8.60
2022-12-13T04:25:50.276Z,-8.50
2022-12-13T04:28:22.067Z,-8.60
2022-12-13T04:30:53.968Z,-8.60
2022-12-13T04:33:22.775Z,-8.70
2022-12-13T04:35:50.382Z,-8.70
2022-12-13T04:38:17.995Z,-8.70
2022-12-13T04:40:44.833Z,-8.80
2022-12-13T04:43:11.714Z,-8.80
2022-12-13T04:45:38.807Z,-8.80
2022-12-13T04:48:06.240Z,-8.90
2022-12-13T04:50:33.533Z,-8.90
2022-12-13T04:53:00.662Z,-8.90
2022-12-13T04:55:27.871Z,-8.90
2022-12-13T04:57:55.001Z,-8.90
2022-12-13T05:00:24.514Z,-8.90
2022-12-13T05:02:51.419Z,-8.90
2022-12-13T05:05:18.822Z,-8.90
2022-12-13T05:07:46.256Z,-8.90
2022-12-13T05:10:32.221Z,-8.90
2022-12-13T05:13:00.956Z,-8.90
2022-12-13T05:15:28.162Z,-8.90
2022-12-13T05:17:55.240Z,-9.00
2022-12-13T05:20:22.298Z,-9.00
2022-12-13T05:22:49.192Z,-9.10
2022-12-13T05:25:16.335Z,-9.10
2022-12-13T05:27:43.469Z,-9.10
2022-12-13T05:30:10.864Z,-9.20
2022-12-13T05:32:43.816Z,-9.20
2022-12-13T05:35:13.848Z,-9.20
2022-12-13T05:37:41.256Z,-9.20
2022-12-13T05:40:09.919Z,-9.20
2022-12-13T05:42:40.041Z,-9.20
2022-12-13T05:45:08.336Z,-9.30
2022-12-13T05:47:35.215Z,-9.30
2022-12-13T05:50:02.076Z,-9.30
2022-12-13T05:52:30.829Z,-9.30
2022-12-13T05:55:01.350Z,-9.40
2022-12-13T05:57:28.961Z,-9.40
2022-12-13T05:59:55.981Z,-9.40
2022-12-13T06:02:23.188Z,-9.40
2022-12-13T06:04:50.297Z,-9.40
2022-12-13T06:07:17.198Z,-9.40
2022-12-13T06:09:44.126Z,-9.40
2022-12-13T06:12:30.876Z,-9.40
2022-12-13T06:15:01.329Z,-9.40
2022-12-13T06:17:37.271Z,-9.40
2022-12-13T06:20:24.301Z,-9.40
2022-12-13T06:22:52.343Z,-9.40
2022-12-13T06:25:30.566Z,-9.40
2022-12-13T06:28:02.511Z,-9.40
2022-12-13T06:30:30.901Z,-9.50
2022-12-13T06:32:58.199Z,-9.50
2022-12-13T06:35:27.982Z,-9.50
2022-12-13T06:38:01.242Z,-9.50
2022-12-13T06:40:32.039Z,-9.50
2022-12-13T06:42:58.919Z,-9.50
2022-12-13T06:45:26.301Z,-9.50
2022-12-13T06:47:53.190Z,-9.50
2022-12-13T06:50:20.190Z,-9.50
2022-12-13T06:52:47.599Z,-9.50
2022-12-13T06:55:14.994Z,-9.60
2022-12-13T06:57:50.750Z,-9.60
2022-12-13T07:00:22.275Z,-9.60
2022-12-13T07:02:57.025Z,-9.70
2022-12-13T07:05:25.089Z,-9.70
2022-12-13T07:07:55.090Z,-9.80
2022-12-13T07:10:23.107Z,-9.80
2022-12-13T07:12:52.289Z,-9.80
2022-12-13T07:15:19.334Z,-9.90
2022-12-13T07:17:54.492Z,-9.90
2022-12-13T07:20:22.715Z,-10.00
2022-12-13T07:22:58.315Z,-10.00
2022-12-13T07:25:28.692Z,-10.00
2022-12-13T07:28:05.051Z,-10.00
2022-12-13T07:30:41.048Z,-10.00
2022-12-13T07:33:09.089Z,-9.90
2022-12-13T07:35:37.173Z,-9.80
2022-12-13T07:38:04.953Z,-9.70
2022-12-13T07:40:34.500Z,-9.30
2022-12-13T07:43:01.342Z,-8.60
2022-12-13T07:45:29.078Z,-7.90
2022-12-13T07:47:55.905Z,-7.10
2022-12-13T07:50:25.036Z,-6.60
2022-12-13T07:52:53.543Z,-6.30
2022-12-13T07:55:22.884Z,-5.80
2022-12-13T07:58:10.649Z,-5.60
2022-12-13T08:00:39.481Z,-5.50
2022-12-13T08:03:07.016Z,-4.80
2022-12-13T08:05:38.599Z,-4.10
2022-12-13T08:08:08.466Z,-3.60
2022-12-13T08:10:35.526Z,-3.30
2022-12-13T08:13:03.742Z,-3.00
2022-12-13T08:15:30.833Z,-2.70
2022-12-13T08:18:00.544Z,-2.60
2022-12-13T08:20:27.581Z,-2.60
2022-12-13T08:23:01.793Z,-2.20
2022-12-13T08:25:29.792Z,-2.40
2022-12-13T08:28:02.172Z,-2.50
2022-12-13T08:30:31.303Z,-2.10
2022-12-13T08:32:58.094Z,-2.20
2022-12-13T08:35:33.697Z,-2.20
2022-12-13T08:38:01.246Z,-2.30
2022-12-13T08:40:28.259Z,-1.80
2022-12-13T08:42:56.023Z,-1.50
2022-12-13T08:45:27.090Z,-1.50
2022-12-13T08:47:54.204Z,-1.30
2022-12-13T08:50:21.019Z,-1.40
2022-12-13T08:52:47.800Z,-1.10
2022-12-13T08:55:15.636Z,-0.70
2022-12-13T08:57:43.630Z,-1.00
2022-12-13T09:00:17.285Z,-0.90
2022-12-13T09:02:44.577Z,-1.10
2022-12-13T09:05:12.976Z,-0.70
2022-12-13T09:07:41.187Z,0.20
2022-12-13T09:10:27.053Z,1.00
2022-12-13T09:13:01.862Z,0.80
2022-12-13T09:15:34.672Z,0.70
2022-12-13T09:18:04.257Z,1.10
2022-12-13T09:20:32.465Z,0.90
2022-12-13T09:23:08.257Z,0.50
2022-12-13T09:25:41.246Z,0.70
2022-12-13T09:28:09.584Z,0.80
2022-12-13T09:30:38.372Z,0.90
2022-12-13T09:33:28.557Z,1.40
2022-12-13T09:35:53.225Z,1.50
2022-12-13T09:38:20.480Z,1.20
2022-12-13T09:40:50.015Z,0.90
2022-12-13T09:43:32.555Z,0.50
2022-12-13T09:46:22.080Z,0.20
2022-12-13T09:48:53.225Z,0.20
2022-12-13T09:51:43.711Z,0.50
2022-12-13T09:54:19.685Z,1.00
2022-12-13T09:56:50.907Z,1.50
2022-12-13T09:59:21.473Z,1.70
2022-12-13T10:01:48.472Z,1.70
2022-12-13T10:04:19.192Z,1.20
2022-12-13T10:06:46.418Z,1.40
2022-12-13T10:09:14.531Z,1.10
2022-12-13T10:11:53.327Z,1.50
2022-12-13T10:14:28.136Z,1.60
2022-12-13T10:17:00.348Z,1.60
2022-12-13T10:19:30.500Z,1.60
2022-12-13T10:22:01.304Z,1.50
2022-12-13T10:24:46.925Z,1.60
2022-12-13T10:27:16.876Z,1.80
2022-12-13T10:30:06.017Z,1.80
2022-12-13T10:32:42.449Z,1.50
2022-12-13T10:35:30.408Z,1.60
2022-12-13T10:38:00.867Z,1.50
2022-12-13T10:40:34.035Z,1.50
2022-12-13T10:43:23.675Z,1.10
2022-12-13T10:45:59.721Z,0.90
2022-12-13T10:48:39.804Z,1.00
2022-12-13T10:51:15.530Z,1.50
2022-12-13T10:53:48.340Z,1.50
2022-12-13T10:56:23.445Z,1.40
2022-12-13T10:59:15.100Z,1.30
2022-12-13T11:01:44.417Z,1.60
2022-12-13T11:04:31.603Z,1.20
2022-12-13T11:07:01.683Z,0.90
2022-12-13T11:09:38.691Z,0.40
2022-12-13T11:12:15.363Z,0.50
2022-12-13T11:15:00.948Z,0.50
2022-12-13T11:17:30.818Z,0.40
2022-12-13T11:20:26.092Z,0.30
2022-12-13T11:23:14.813Z,0.70
2022-12-13T11:25:43.601Z,0.60
2022-12-13T11:28:27.012Z,0.50
2022-12-13T11:31:21.908Z,0.70
2022-12-13T11:34:00.658Z,0.70
2022-12-13T11:36:43.000Z,0.80
2022-12-13T11:39:14.918Z,0.60
2022-12-13T11:41:47.590Z,0.80
2022-12-13T11:44:28.709Z,0.80
2022-12-13T11:46:59.552Z,0.50
2022-12-13T11:49:41.366Z,0.40
2022-12-13T11:52:40.075Z,0.10
2022-12-13T11:55:35.302Z,-0.10
2022-12-13T11:59:01.171Z,0.50
2022-12-13T12:01:41.498Z,0.80
2022-12-13T12:04:19.603Z,0.80
2022-12-13T12:06:57.174Z,1.00
2022-12-13T12:09:27.589Z,0.90
2022-12-13T12:12:09.366Z,1.10
2022-12-13T12:14:45.998Z,0.80
2022-12-13T12:17:15.835Z,0.80
2022-12-13T12:19:46.827Z,0.70
2022-12-13T12:22:50.063Z,0.60
2022-12-13T12:25:26.248Z,0.00
2022-12-13T12:28:10.132Z,0.20
2022-12-13T12:31:19.895Z,0.60
2022-12-13T12:33:58.628Z,0.40
2022-12-13T12:36:54.039Z,0.30
2022-12-13T12:39:46.957Z,0.20
2022-12-13T12:42:22.547Z,0.10
2022-12-13T12:44:49.352Z,0.00
2022-12-13T12:47:49.038Z,-0.10
2022-12-13T12:50:33.705Z,-0.30
2022-12-13T12:53:10.146Z,-0.50
2022-12-13T12:55:55.506Z,-0.80
2022-12-13T12:58:54.532Z,-1.10
2022-12-13T13:01:50.206Z,-0.90
2022-12-13T13:04:22.487Z,-0.70
2022-12-13T13:07:04.030Z,-0.80
2022-12-13T13:09:32.033Z,-0.70
2022-12-13T13:12:02.610Z,-0.80
2022-12-13T13:14:49.458Z,-1.10
2022-12-13T13:17:16.209Z,-1.30
2022-12-13T13:20:01.433Z,-1.70
2022-12-13T13:22:44.234Z,-1.80
2022-12-13T13:25:44.002Z,-1.70
2022-12-13T13:28:22.719Z,-1.90
2022-12-13T13:31:02.039Z,-2.20
2022-12-13T13:33:49.695Z,-2.20
2022-12-13T13:36:46.589Z,-2.30
2022-12-13T13:39:19.360Z,-2.30
2022-12-13T13:42:07.483Z,-2.40
2022-12-13T13:44:54.701Z,-1.90
2022-12-13T13:47:24.141Z,-0.40
2022-12-13T13:50:11.157Z,-0.20
2022-12-13T13:53:20.101Z,0.00
2022-12-13T13:56:06.219Z,-0.80
2022-12-13T13:58:36.011Z,-1.00
2022-12-13T14:01:41.543Z,-1.40
2022-12-13T14:04:27.314Z,-1.80
2022-12-13T14:07:30.932Z,-2.00
2022-12-13T14:10:35.227Z,-1.80
2022-12-13T14:13:59.021Z,-2.40
2022-12-13T14:16:59.652Z,-2.70
2022-12-13T14:19:56.464Z,-2.80
2022-12-13T14:22:59.058Z,-3.00
2022-12-13T14:25:31.952Z,-3.20
2022-12-13T14:28:17.271Z,-3.30
2022-12-13T14:30:47.729Z,-3.50
2022-12-13T14:33:26.367Z,-3.50
2022-12-13T14:35:59.472Z,-3.40
2022-12-13T14:38:29.148Z,-3.60
2022-12-13T14:40:59.792Z,-3.80
2022-12-13T14:43:29.702Z,-4.00
2022-12-13T14:46:06.438Z,-3.90
2022-12-13T14:48:37.538Z,-4.20
2022-12-13T14:51:04.862Z,-4.40
2022-12-13T14:53:43.228Z,-4.50
2022-12-13T14:56:28.740Z,-4.70
2022-12-13T14:58:57.263Z,-4.80
2022-12-13T15:01:35.791Z,-4.90
2022-12-13T15:04:21.560Z,-5.00
2022-12-13T15:07:13.619Z,-5.10
2022-12-13T15:09:44.088Z,-5.20
2022-12-13T15:12:24.719Z,-5.10
2022-12-13T15:15:02.421Z,-5.10
2022-12-13T15:17:35.978Z,-5.20
2022-12-13T15:20:28.857Z,-5.30
2022-12-13T15:23:23.798Z,-5.20
2022-12-13T15:26:11.982Z,-5.30
2022-12-13T15:28:43.012Z,-5.30
2022-12-13T15:31:11.624Z,-5.40
2022-12-13T15:33:48.158Z,-5.40
2022-12-13T15:36:20.683Z,-5.30
2022-12-13T15:38:53.503Z,-5.40
2022-12-13T15:41:24.315Z,-5.40
2022-12-13T15:43:54.834Z,-5.30
2022-12-13T15:46:30.231Z,-5.30
2022-12-13T15:48:59.612Z,-5.30
2022-12-13T15:51:29.812Z,-5.20
2022-12-13T15:54:21.234Z,-5.20
2022-12-13T15:57:05.512Z,-5.20
2022-12-13T15:59:34.614Z,-4.90
2022-12-13T16:02:03.408Z,-4.90
2022-12-13T16:04:33.337Z,-5.20
2022-12-13T16:07:01.283Z,-5.30
2022-12-13T16:09:33.496Z,-5.40
2022-12-13T16:12:03.180Z,-5.40
2022-12-13T16:14:33.145Z,-5.40
2022-12-13T16:17:25.859Z,-5.40
2022-12-13T16:19:55.421Z,-5.40
2022-12-13T16:22:24.000Z,-5.30
2022-12-13T16:24:52.330Z,-5.40
2022-12-13T16:27:19.206Z,-5.40
2022-12-13T16:29:46.046Z,-5.50
2022-12-13T16:32:12.960Z,-5.40
2022-12-13T16:34:39.968Z,-5.40
2022-12-13T16:37:26.342Z,-5.30
2022-12-13T16:39:53.853Z,-5.30
2022-12-13T16:42:21.010Z,-5.00
2022-12-13T16:45:05.828Z,-5.00
2022-12-13T16:47:46.433Z,-5.10
2022-12-13T16:50:18.305Z,-5.30
2022-12-13T16:52:45.158Z,-5.20
2022-12-13T16:55:12.557Z,-4.70
2022-12-13T16:57:39.796Z,-4.30
2022-12-13T17:00:09.993Z,-4.60
2022-12-13T17:02:37.641Z,-4.80
2022-12-13T17:05:06.216Z,-4.90
2022-12-13T17:07:33.505Z,-5.10
2022-12-13T17:10:00.399Z,-5.40
2022-12-13T17:12:27.184Z,-5.70
2022-12-13T17:14:54.393Z,-5.80
2022-12-13T17:17:21.447Z,-5.90
2022-12-13T17:19:48.334Z,-5.90
2022-12-13T17:22:15.155Z,-5.90
2022-12-13T17:24:41.963Z,-6.00
2022-12-13T17:27:08.928Z,-6.10
2022-12-13T17:29:36.178Z,-6.20
2022-12-13T17:32:04.485Z,-6.10
2022-12-13T17:34:31.477Z,-6.10
2022-12-13T17:36:58.288Z,-6.20
2022-12-13T17:39:25.663Z,-6.20
2022-12-13T17:41:54.705Z,-6.30
2022-12-13T17:44:23.460Z,-6.20
2022-12-13T17:46:55.150Z,-6.20
2022-12-13T17:49:22.499Z,-6.30
2022-12-13T17:51:51.870Z,-6.30
2022-12-13T17:54:19.607Z,-6.40
2022-12-13T17:56:46.811Z,-6.40
2022-12-13T17:59:15.355Z,-6.40
2022-12-13T18:01:45.880Z,-6.40
2022-12-13T18:04:13.592Z,-6.40
2022-12-13T18:06:40.867Z,-6.40
2022-12-13T18:09:08.803Z,-6.30
2022-12-13T18:11:35.864Z,-6.30
2022-12-13T18:14:04.708Z,-6.30
2022-12-13T18:16:37.483Z,-6.30
2022-12-13T18:19:08.079Z,-6.30
2022-12-13T18:21:35.769Z,-6.30
2022-12-13T18:24:02.849Z,-6.30
2022-12-13T18:26:29.630Z,-6.30
2022-12-13T18:28:56.488Z,-6.30
2022-12-13T18:31:25.360Z,-6.30
2022-12-13T18:33:54.045Z,-6.40
2022-12-13T18:36:23.168Z,-6.40
2022-12-13T18:38:50.093Z,-6.40
2022-12-13T18:41:22.588Z,-6.40
2022-12-13T18:43:55.768Z,-6.40
2022-12-13T18:46:22.703Z,-6.40
2022-12-13T18:48:49.732Z,-6.30
2022-12-13T18:51:18.277Z,-6.30
2022-12-13T18:53:45.133Z,-6.30
2022-12-13T18:56:18.892Z,-6.30
2022-12-13T18:58:47.239Z,-6.30
2022-12-13T19:01:15.750Z,-6.30
2022-12-13T19:03:45.231Z,-6.20
2022-12-13T19:06:17.411Z,-6.30
2022-12-13T19:08:48.318Z,-6.30
2022-12-13T19:11:16.008Z,-6.20
2022-12-13T19:13:42.792Z,-6.20
2022-12-13T19:16:15.714Z,-6.20
2022-12-13T19:18:42.826Z,-6.20
2022-12-13T19:21:14.121Z,-6.20
2022-12-13T19:23:41.157Z,-6.20
2022-12-13T19:26:14.012Z,-6.20
2022-12-13T19:28:42.234Z,-6.20
2022-12-13T19:31:11.455Z,-6.20
2022-12-13T19:33:38.316Z,-6.30
2022-12-13T19:36:06.651Z,-6.30
2022-12-13T19:38:33.519Z,-6.30
2022-12-13T19:41:00.763Z,-6.30
2022-12-13T19:43:28.355Z,-6.30
2022-12-13T19:45:55.438Z,-6.40
2022-12-13T19:48:22.299Z,-6.30
2022-12-13T19:50:49.132Z,-6.30
2022-12-13T19:53:15.925Z,-6.30
2022-12-13T19:55:45.212Z,-6.30
2022-12-13T19:58:15.147Z,-6.30
2022-12-13T20:00:41.974Z,-6.30
2022-12-13T20:03:08.926Z,-6.30
2022-12-13T20:05:36.147Z,-6.30
2022-12-13T20:08:03.091Z,-6.30
2022-12-13T20:10:29.923Z,-6.20
2022-12-13T20:12:57.320Z,-6.30
2022-12-13T20:15:24.327Z,-6.30
2022-12-13T20:17:51.820Z,-6.30
2022-12-13T20:20:20.041Z,-6.30
2022-12-13T20:22:48.372Z,-6.20
2022-12-13T20:25:15.686Z,-6.20
2022-12-13T20:27:44.071Z,-6.20
2022-12-13T20:30:11.435Z,-6.20
2022-12-13T20:32:38.327Z,-6.20
2022-12-13T20:35:05.534Z,-6.20
2022-12-13T20:37:32.367Z,-6.20
2022-12-13T20:39:59.662Z,-6.30
2022-12-13T20:42:26.490Z,-6.30
2022-12-13T20:44:53.315Z,-6.30
2022-12-13T20:47:20.110Z,-6.30
2022-12-13T20:49:48.440Z,-6.30
2022-12-13T20:52:16.983Z,-6.40
2022-12-13T20:54:43.948Z,-6.40
2022-12-13T20:57:10.727Z,-6.40
2022-12-13T20:59:37.909Z,-6.30
2022-12-13T21:02:04.847Z,-6.30
2022-12-13T21:04:31.780Z,-6.30
2022-12-13T21:06:58.663Z,-6.20
2022-12-13T21:09:25.473Z,-6.20
2022-12-13T21:11:52.298Z,-6.30
2022-12-13T21:14:29.464Z,-6.30
2022-12-13T21:16:58.608Z,-6.20
2022-12-13T21:19:37.437Z,-6.20
2022-12-13T21:22:06.009Z,-6.30
2022-12-13T21:24:32.826Z,-6.20
2022-12-13T21:27:00.475Z,-6.20
2022-12-13T21:29:27.385Z,-6.20
2022-12-13T21:31:54.905Z,-6.20
2022-12-13T21:34:22.519Z,-6.10
2022-12-13T21:36:52.272Z,-6.10
2022-12-13T21:39:24.898Z,-6.10
2022-12-13T21:41:52.458Z,-6.10
2022-12-13T21:44:19.336Z,-6.10
2022-12-13T21:49:33.602Z,-5.90
2022-12-13T21:52:00.391Z,-6.00
2022-12-13T21:54:27.187Z,-6.00
2022-12-13T21:57:12.994Z,-6.00
2022-12-13T21:59:39.823Z,-5.90
2022-12-13T22:02:12.441Z,-5.90
2022-12-13T22:04:43.501Z,-5.90
2022-12-13T22:07:17.841Z,-5.90
2022-12-13T22:09:45.898Z,-5.80
2022-12-13T22:12:21.019Z,-5.80
2022-12-13T22:14:48.250Z,-5.80
2022-12-13T22:17:15.458Z,-5.90
2022-12-13T22:19:42.288Z,-5.90
2022-12-13T22:22:09.119Z,-5.80
2022-12-13T22:24:35.955Z,-5.90
2022-12-13T22:27:03.019Z,-5.90
2022-12-13T22:29:29.814Z,-5.80
2022-12-13T22:31:56.689Z,-5.80
2022-12-13T22:34:23.474Z,-5.80
2022-12-13T22:36:50.284Z,-5.70
2022-12-13T22:39:18.793Z,-5.70
2022-12-13T22:41:46.350Z,-5.60
2022-12-13T22:44:13.916Z,-5.60
2022-12-13T22:46:41.822Z,-5.70
2022-12-13T22:49:09.502Z,-5.70
2022-12-13T22:51:37.225Z,-5.80
2022-12-13T22:54:04.220Z,-5.70
2022-12-13T22:56:32.080Z,-5.70
2022-12-13T22:59:04.602Z,-5.60
2022-12-13T23:01:33.874Z,-5.50
2022-12-13T23:04:01.495Z,-5.60
2022-12-13T23:06:34.442Z,-5.60
2022-12-13T23:09:03.580Z,-5.50
2022-12-13T23:11:49.365Z,-5.50
2022-12-13T23:14:18.939Z,-5.50
2022-12-13T23:16:46.176Z,-5.40
2022-12-13T23:22:02.372Z,-5.40
2022-12-13T23:24:29.209Z,-5.50
2022-12-13T23:26:56.176Z,-5.50
2022-12-13T23:29:22.963Z,-5.50
2022-12-13T23:31:49.796Z,-5.50
2022-12-13T23:34:16.959Z,-5.50
2022-12-13T23:36:43.816Z,-5.50
2022-12-13T23:39:11.881Z,-5.40
2022-12-13T23:41:38.741Z,-5.40
2022-12-13T23:44:05.600Z,-5.50
2022-12-13T23:46:35.194Z,-5.40
2022-12-13T23:49:04.681Z,-5.40
2022-12-13T23:51:32.476Z,-5.40
2022-12-13T23:53:59.497Z,-5.40
2022-12-13T23:56:26.794Z,-5.40
2022-12-13T23:58:53.578Z,-5.40
